createdAt,value
2023-05-15T00:00:10.875Z,3.60
2023-05-15T00:03:32.880Z,3.22
2023-05-15T00:06:54.691Z,3.85
2023-05-15T00:10:17.884Z,4.05
2023-05-15T00:13:39.795Z,3.72
2023-05-15T00:17:01.616Z,3.70
2023-05-15T00:20:23.444Z,4.32
2023-05-15T00:23:45.047Z,3.55
2023-05-15T00:27:08.477Z,3.60
2023-05-15T00:30:30.500Z,3.55
2023-05-15T00:33:52.152Z,3.42
2023-05-15T00:37:13.778Z,3.20
2023-05-15T00:40:37.398Z,3.20
2023-05-15T00:44:02.003Z,3.90
2023-05-15T00:47:25.262Z,3.35
2023-05-15T00:50:46.936Z,3.63
2023-05-15T00:54:09.162Z,3.88
2023-05-15T00:57:32.740Z,3.30
2023-05-15T01:00:56.354Z,3.20
2023-05-15T01:04:18.414Z,3.15
2023-05-15T01:07:49.553Z,3.38
2023-05-15T01:11:13.027Z,3.60
2023-05-15T01:14:34.678Z,3.85
2023-05-15T01:17:58.010Z,3.83
2023-05-15T01:21:42.095Z,4.22
2023-05-15T01:25:37.272Z,4.20
2023-05-15T01:29:06.205Z,3.80
2023-05-15T01:32:34.539Z,3.90
2023-05-15T01:36:00.997Z,3.35
2023-05-15T01:39:29.113Z,3.58
2023-05-15T01:42:55.285Z,4.13
2023-05-15T01:46:21.218Z,3.53
2023-05-15T01:49:46.168Z,4.50
2023-05-15T01:53:10.641Z,4.20
2023-05-15T01:56:33.357Z,3.95
2023-05-15T01:59:56.565Z,3.30
2023-05-15T02:03:20.336Z,3.60
2023-05-15T02:06:42.491Z,3.65
2023-05-15T02:10:05.362Z,3.53
2023-05-15T02:13:28.130Z,3.05
2023-05-15T02:16:50.088Z,3.85
2023-05-15T02:20:14.461Z,3.65
2023-05-15T02:23:36.394Z,3.67
2023-05-15T02:27:05.342Z,3.97
2023-05-15T02:30:39.651Z,3.10
2023-05-15T02:34:09.661Z,3.28
2023-05-15T02:37:36.303Z,3.08
2023-05-15T02:40:59.413Z,3.13
2023-05-15T02:44:21.504Z,3.85
2023-05-15T02:47:44.088Z,3.70
2023-05-15T02:51:06.570Z,3.30
2023-05-15T02:54:29.712Z,3.60
2023-05-15T02:57:51.611Z,4.13
2023-05-15T03:01:13.713Z,3.80
2023-05-15T03:04:35.307Z,4.07
2023-05-15T03:07:58.508Z,4.03
2023-05-15T03:11:21.635Z,4.28
2023-05-15T03:14:43.547Z,4.07
2023-05-15T03:18:05.601Z,3.70
2023-05-15T03:21:27.398Z,3.83
2023-05-15T03:24:49.238Z,3.70
2023-05-15T03:28:12.808Z,3.60
2023-05-15T03:31:35.068Z,3.65
2023-05-15T03:34:56.668Z,4.05
2023-05-15T03:38:18.059Z,4.10
2023-05-15T03:41:40.073Z,3.97
2023-05-15T03:45:03.394Z,3.92
2023-05-15T03:48:25.534Z,4.28
2023-05-15T03:51:47.183Z,4.10
2023-05-15T03:55:09.627Z,3.80
2023-05-15T03:58:32.215Z,4.18
2023-05-15T04:02:04.362Z,4.32
2023-05-15T04:05:27.721Z,4.22
2023-05-15T04:08:50.493Z,4.38
2023-05-15T04:12:12.503Z,4.30
2023-05-15T04:15:34.163Z,4.07
2023-05-15T04:18:57.503Z,4.63
2023-05-15T04:22:19.382Z,4.57
2023-05-15T04:25:42.897Z,4.18
2023-05-15T04:29:05.224Z,4.10
2023-05-15T04:32:27.746Z,4.03
2023-05-15T04:35:50.974Z,4.20
2023-05-15T04:39:13.246Z,3.88
2023-05-15T04:42:35.184Z,3.63
2023-05-15T04:45:57.066Z,4.43
2023-05-15T04:49:18.951Z,4.32
2023-05-15T04:52:43.180Z,4.25
2023-05-15T04:56:05.765Z,3.65
2023-05-15T04:59:28.743Z,4.40
2023-05-15T05:02:51.104Z,4.20
2023-05-15T05:06:12.971Z,3.58
2023-05-15T05:09:36.218Z,3.78
2023-05-15T05:12:58.329Z,4.88
2023-05-15T05:16:20.394Z,4.45
2023-05-15T05:19:42.912Z,4.50
2023-05-15T05:23:04.880Z,4.13
2023-05-15T05:26:28.521Z,3.67
2023-05-15T05:29:50.541Z,3.20
2023-05-15T05:33:12.792Z,3.60
2023-05-15T05:36:34.541Z,3.75
2023-05-15T05:39:56.490Z,3.58
2023-05-15T05:43:20.946Z,3.50
2023-05-15T05:46:42.694Z,3.53
2023-05-15T05:50:04.713Z,3.80
2023-05-15T05:53:26.362Z,3.40
2023-05-15T05:56:50.096Z,3.40
2023-05-15T06:00:15.066Z,3.78
2023-05-15T06:03:37.765Z,3.97
2023-05-15T06:06:59.533Z,3.38
2023-05-15T06:10:21.988Z,3.90
2023-05-15T06:13:44.243Z,4.05
2023-05-15T06:17:07.548Z,3.40
2023-05-15T06:20:29.344Z,3.65
2023-05-15T06:23:51.045Z,3.17
2023-05-15T06:27:15.432Z,3.38
2023-05-15T06:30:37.114Z,3.00
2023-05-15T06:34:00.177Z,4.80
2023-05-15T06:37:22.283Z,3.40
2023-05-15T06:40:43.979Z,4.18
2023-05-15T06:44:06.124Z,3.15
2023-05-15T06:47:28.054Z,3.60
2023-05-15T06:50:51.628Z,3.67
2023-05-15T06:54:13.316Z,3.40
2023-05-15T06:57:35.138Z,3.55
2023-05-15T07:00:57.291Z,3.25
2023-05-15T07:04:21.170Z,3.67
2023-05-15T07:07:44.504Z,3.15
2023-05-15T07:11:06.654Z,3.20
2023-05-15T07:14:28.413Z,2.83
2023-05-15T07:17:50.187Z,2.95
2023-05-15T07:21:11.768Z,3.10
2023-05-15T07:24:34.849Z,2.75
2023-05-15T07:27:56.978Z,3.83
2023-05-15T07:31:19.090Z,3.13
2023-05-15T07:34:41.977Z,2.80
2023-05-15T07:38:03.898Z,3.00
2023-05-15T07:41:27.217Z,2.75
2023-05-15T07:44:49.683Z,2.88
2023-05-15T07:48:15.552Z,2.97
2023-05-15T07:51:37.463Z,3.00
2023-05-15T07:54:59.315Z,3.00
2023-05-15T07:58:23.392Z,2.72
2023-05-15T08:01:45.022Z,2.70
2023-05-15T08:05:07.730Z,2.40
2023-05-15T08:08:29.702Z,2.75
2023-05-15T08:11:51.729Z,2.80
2023-05-15T08:15:15.553Z,2.67
2023-05-15T08:18:37.598Z,2.67
2023-05-15T08:21:59.429Z,2.53
2023-05-15T08:25:21.103Z,2.58
2023-05-15T08:28:43.042Z,2.40
2023-05-15T08:32:07.972Z,3.08
2023-05-15T08:35:29.815Z,3.28
2023-05-15T08:38:51.503Z,2.55
2023-05-15T08:42:19.813Z,2.70
2023-05-15T08:45:42.064Z,2.85
2023-05-15T08:49:15.768Z,2.67
2023-05-15T08:52:37.709Z,2.60
2023-05-15T08:55:59.612Z,2.40
2023-05-15T08:59:21.683Z,3.45
2023-05-15T09:02:44.011Z,2.88
2023-05-15T09:06:08.232Z,3.15
2023-05-15T09:09:31.410Z,3.30
2023-05-15T09:12:54.823Z,2.60
2023-05-15T09:16:16.772Z,2.75
2023-05-15T09:19:40.613Z,2.70
2023-05-15T09:23:05.512Z,2.40
2023-05-15T09:26:27.253Z,3.17
2023-05-15T09:29:52.274Z,3.10
2023-05-15T09:33:18.297Z,3.03
2023-05-15T09:37:19.365Z,3.40
2023-05-15T09:40:53.802Z,3.08
2023-05-15T09:44:38.903Z,2.47
2023-05-15T09:48:15.173Z,2.55
2023-05-15T09:51:37.709Z,2.53
2023-05-15T09:54:59.829Z,2.55
2023-05-15T09:58:23.883Z,2.40
2023-05-15T10:01:48.932Z,2.05
2023-05-15T10:05:14.670Z,3.08
2023-05-15T10:08:38.231Z,2.53
2023-05-15T10:12:01.360Z,2.55
2023-05-15T10:15:25.258Z,2.10
2023-05-15T10:18:49.673Z,2.40
2023-05-15T10:22:12.686Z,1.88
2023-05-15T10:25:41.330Z,2.40
2023-05-15T10:29:06.339Z,1.90
2023-05-15T10:32:30.926Z,2.30
2023-05-15T10:35:54.805Z,2.60
2023-05-15T10:39:18.221Z,2.78
2023-05-15T10:42:43.528Z,2.60
2023-05-15T10:46:06.604Z,2.33
2023-05-15T10:49:29.653Z,2.40
2023-05-15T10:52:53.141Z,2.65
2023-05-15T10:56:16.828Z,2.60
2023-05-15T10:59:38.499Z,2.45
2023-05-15T11:03:01.315Z,2.85
2023-05-15T11:06:32.427Z,2.47
2023-05-15T11:09:54.896Z,2.40
2023-05-15T11:13:16.586Z,2.53
2023-05-15T11:16:59.679Z,2.65
2023-05-15T11:20:21.717Z,2.67
2023-05-15T11:23:48.658Z,2.35
2023-05-15T11:27:17.905Z,2.20
2023-05-15T11:30:41.423Z,2.47
2023-05-15T11:34:07.486Z,2.38
2023-05-15T11:37:31.391Z,2.63
2023-05-15T11:40:57.271Z,2.65
2023-05-15T11:44:22.872Z,2.30
2023-05-15T11:47:45.623Z,2.80
2023-05-15T11:51:16.230Z,2.75
2023-05-15T11:54:38.405Z,2.70
2023-05-15T11:58:01.816Z,2.47
2023-05-15T12:01:23.789Z,2.20
2023-05-15T12:04:45.577Z,2.42
2023-05-15T12:08:11.606Z,2.83
2023-05-15T12:11:33.668Z,2.30
2023-05-15T12:14:59.483Z,2.45
2023-05-15T12:18:21.371Z,2.63
2023-05-15T12:21:55.298Z,2.75
2023-05-15T12:25:17.939Z,2.40
2023-05-15T12:28:40.010Z,2.70
2023-05-15T12:32:04.195Z,2.40
2023-05-15T12:35:25.973Z,2.38
2023-05-15T12:38:47.887Z,2.17
2023-05-15T12:42:10.738Z,2.00
2023-05-15T12:45:33.515Z,3.30
2023-05-15T12:48:59.619Z,2.53
2023-05-15T12:52:23.580Z,2.90
2023-05-15T12:55:47.652Z,2.70
2023-05-15T12:59:09.209Z,2.85
2023-05-15T13:02:33.519Z,2.20
2023-05-15T13:05:56.979Z,2.83
2023-05-15T13:09:23.461Z,2.75
2023-05-15T13:12:46.799Z,2.90
2023-05-15T13:16:19.583Z,2.63
2023-05-15T13:19:41.491Z,2.42
2023-05-15T13:23:05.354Z,2.40
2023-05-15T13:26:27.633Z,2.45
2023-05-15T13:29:51.890Z,2.72
2023-05-15T13:33:14.878Z,2.30
2023-05-15T13:36:36.890Z,2.47
2023-05-15T13:40:00.093Z,2.72
2023-05-15T13:43:23.183Z,2.75
2023-05-15T13:46:46.390Z,2.97
2023-05-15T13:50:10.087Z,2.50
2023-05-15T13:53:31.864Z,2.67
2023-05-15T13:56:55.079Z,3.00
2023-05-15T14:00:18.781Z,2.80
2023-05-15T14:03:40.829Z,2.58
2023-05-15T14:07:02.384Z,2.50
2023-05-15T14:10:24.578Z,3.03
2023-05-15T14:13:48.195Z,2.60
2023-05-15T14:17:10.118Z,2.65
2023-05-15T14:20:31.970Z,2.72
2023-05-15T14:23:53.920Z,2.35
2023-05-15T14:27:18.377Z,3.03
2023-05-15T14:30:41.611Z,2.50
2023-05-15T14:34:03.344Z,2.30
2023-05-15T14:37:25.128Z,2.75
2023-05-15T14:40:47.271Z,3.35
2023-05-15T14:44:08.843Z,3.15
2023-05-15T14:47:36.414Z,2.70
2023-05-15T14:51:00.164Z,2.80
2023-05-15T14:54:23.825Z,3.25
2023-05-15T14:57:50.761Z,2.83
2023-05-15T15:01:13.539Z,3.58
2023-05-15T15:04:41.692Z,3.00
2023-05-15T15:08:08.037Z,2.95
2023-05-15T15:11:33.036Z,2.78
2023-05-15T15:14:59.060Z,3.10
2023-05-15T15:18:22.496Z,3.08
2023-05-15T15:21:48.275Z,3.30
2023-05-15T15:25:11.848Z,2.80
2023-05-15T15:28:35.425Z,3.25
2023-05-15T15:32:05.401Z,3.05
2023-05-15T15:35:31.163Z,2.80
2023-05-15T15:38:56.165Z,3.35
2023-05-15T15:42:19.335Z,2.72
2023-05-15T15:45:42.472Z,3.30
2023-05-15T15:49:09.654Z,3.78
2023-05-15T15:52:34.361Z,3.10
2023-05-15T15:55:58.441Z,3.20
2023-05-15T15:59:22.848Z,2.38
2023-05-15T16:02:47.968Z,2.80
2023-05-15T16:06:15.101Z,3.20
2023-05-15T16:09:38.064Z,3.50
2023-05-15T16:13:01.946Z,3.10
2023-05-15T16:16:25.263Z,2.70
2023-05-15T16:19:48.256Z,3.30
2023-05-15T16:23:11.876Z,3.03
2023-05-15T16:26:34.335Z,2.92
2023-05-15T16:29:57.645Z,2.55
2023-05-15T16:33:20.003Z,2.63
2023-05-15T16:36:42.332Z,2.70
2023-05-15T16:40:04.956Z,2.30
2023-05-15T16:43:26.706Z,2.22
2023-05-15T16:46:49.932Z,2.80
2023-05-15T16:50:13.309Z,2.33
2023-05-15T16:53:35.260Z,3.30
2023-05-15T16:56:59.309Z,3.13
2023-05-15T17:00:21.806Z,2.30
2023-05-15T17:03:45.322Z,2.53
2023-05-15T17:07:07.673Z,2.97
2023-05-15T17:10:32.351Z,2.92
2023-05-15T17:13:54.127Z,2.67
2023-05-15T17:17:15.885Z,3.00
2023-05-15T17:20:39.197Z,2.65
2023-05-15T17:24:01.253Z,2.28
2023-05-15T17:27:25.016Z,2.95
2023-05-15T17:30:51.755Z,3.03
2023-05-15T17:34:15.428Z,3.20
2023-05-15T17:37:41.580Z,3.20
2023-05-15T17:41:04.936Z,2.97
2023-05-15T17:44:29.817Z,3.10
2023-05-15T17:47:52.502Z,3.67
2023-05-15T17:51:14.470Z,2.90
2023-05-15T17:54:37.851Z,3.08
2023-05-15T17:58:00.191Z,3.00
2023-05-15T18:01:22.302Z,3.47
2023-05-15T18:04:44.379Z,2.85
2023-05-15T18:08:06.978Z,3.13
2023-05-15T18:11:30.196Z,3.00
2023-05-15T18:14:52.401Z,2.85
2023-05-15T18:18:14.696Z,3.22
2023-05-15T18:21:38.003Z,3.03
2023-05-15T18:25:01.007Z,3.65
2023-05-15T18:28:24.064Z,3.10
2023-05-15T18:31:46.160Z,2.88
2023-05-15T18:35:08.571Z,3.42
2023-05-15T18:38:30.411Z,3.35
2023-05-15T18:41:52.663Z,2.92
2023-05-15T18:45:16.363Z,2.85
2023-05-15T18:48:37.990Z,3.90
2023-05-15T18:52:00.198Z,3.42
2023-05-15T18:55:22.859Z,3.35
2023-05-15T18:58:45.764Z,3.25
2023-05-15T19:02:10.372Z,4.05
2023-05-15T19:05:33.792Z,3.42
2023-05-15T19:08:55.762Z,2.65
2023-05-15T19:12:17.762Z,3.88
2023-05-15T19:15:39.562Z,3.33
2023-05-15T19:19:02.814Z,3.75
2023-05-15T19:22:24.787Z,3.50
2023-05-15T19:25:46.863Z,3.58
2023-05-15T19:29:08.637Z,3.63
2023-05-15T19:32:30.534Z,3.35
2023-05-15T19:35:53.734Z,3.83
2023-05-15T19:39:15.847Z,3.17
2023-05-15T19:42:37.694Z,3.55
2023-05-15T19:45:59.414Z,3.58
2023-05-15T19:49:21.394Z,3.97
2023-05-15T19:52:45.360Z,4.80
2023-05-15T19:56:07.838Z,3.22
2023-05-15T19:59:30.096Z,3.63
2023-05-15T20:02:51.990Z,3.67
2023-05-15T20:06:13.890Z,3.60
2023-05-15T20:09:39.317Z,3.38
2023-05-15T20:13:01.336Z,3.50
2023-05-15T20:16:23.070Z,3.70
2023-05-15T20:19:45.063Z,3.58
2023-05-15T20:23:07.474Z,2.97
2023-05-15T20:26:30.645Z,3.47
2023-05-15T20:29:52.484Z,3.58
2023-05-15T20:33:14.692Z,3.38
2023-05-15T20:36:38.969Z,2.88
2023-05-15T20:40:01.059Z,4.10
2023-05-15T20:48:11.793Z,3.05
2023-05-15T20:51:33.638Z,3.10
2023-05-15T20:54:55.545Z,3.60
2023-05-15T20:58:17.287Z,3.42
2023-05-15T21:01:39.320Z,3.38
2023-05-15T21:05:02.369Z,4.15
2023-05-15T21:08:24.401Z,3.42
2023-05-15T21:11:47.318Z,2.88
2023-05-15T21:15:11.292Z,3.00
2023-05-15T21:18:34.214Z,2.70
2023-05-15T21:21:57.428Z,2.47
2023-05-15T21:25:20.109Z,2.85
2023-05-15T21:28:41.804Z,2.80
2023-05-15T21:32:03.550Z,2.53
2023-05-15T21:35:25.706Z,3.22
2023-05-15T21:38:48.851Z,2.72
2023-05-15T21:42:10.900Z,2.45
2023-05-15T21:45:33.151Z,2.65
2023-05-15T21:48:54.695Z,2.30
2023-05-15T21:52:16.380Z,2.42
2023-05-15T21:55:39.984Z,2.60
2023-05-15T21:59:01.893Z,3.28
2023-05-15T22:02:23.783Z,2.50
2023-05-15T22:05:46.750Z,2.45
2023-05-15T22:09:08.805Z,2.72
2023-05-15T22:12:32.315Z,2.45
2023-05-15T22:15:54.288Z,2.92
2023-05-15T22:19:25.053Z,2.72
2023-05-15T22:22:53.664Z,2.88
2023-05-15T22:26:15.765Z,2.60
2023-05-15T22:29:38.880Z,2.80
2023-05-15T22:33:00.831Z,2.63
2023-05-15T22:36:22.597Z,2.72
2023-05-15T22:39:44.120Z,2.50
2023-05-15T22:43:05.920Z,2.80
2023-05-15T22:46:29.257Z,2.83
2023-05-15T22:49:51.509Z,2.78
2023-05-15T22:53:16.790Z,2.60
2023-05-15T22:56:38.541Z,3.00
2023-05-15T23:00:00.183Z,2.50
2023-05-15T23:03:23.394Z,2.58
2023-05-15T23:06:45.240Z,2.35
2023-05-15T23:10:08.403Z,2.22
2023-05-15T23:13:30.588Z,3.35
2023-05-15T23:16:52.280Z,2.65
2023-05-15T23:20:15.848Z,2.45
2023-05-15T23:23:37.477Z,2.50
2023-05-15T23:26:59.405Z,3.00
2023-05-15T23:30:21.583Z,2.28
2023-05-15T23:33:43.532Z,3.10
2023-05-15T23:37:07.068Z,2.63
2023-05-15T23:40:28.937Z,2.63
2023-05-15T23:43:51.038Z,2.97
2023-05-15T23:47:12.839Z,2.88
2023-05-15T23:50:34.712Z,2.83
2023-05-15T23:53:57.945Z,2.90
2023-05-15T23:57:19.968Z,2.70
